createdAt,value
2023-02-24T09:05:20.792Z,98471.81
2023-02-24T09:07:54.721Z,98459.38
2023-02-24T09:10:21.937Z,98465.53
2023-02-24T09:12:49.177Z,98459.72
2023-02-24T09:15:15.918Z,98457.69
2023-02-24T09:17:47.061Z,98459.72
2023-02-24T09:20:42.764Z,98454.47
2023-02-24T09:23:19.940Z,98450.66
2023-02-24T09:25:50.548Z,98451.84
2023-02-24T09:28:19.637Z,98433.44
2023-02-24T09:30:55.483Z,98436.03
2023-02-24T09:33:26.702Z,98432.75
2023-02-24T09:36:09.475Z,98429.72
2023-02-24T09:39:00.156Z,98426.38
2023-02-24T09:42:04.874Z,98423.06
2023-02-24T09:44:52.713Z,98416.69
2023-02-24T09:47:56.704Z,98414.25
2023-02-24T09:50:47.355Z,98414.66
2023-02-24T09:53:17.493Z,98410.63
2023-02-24T09:56:06.565Z,98407.19
2023-02-24T09:58:53.254Z,98402.38
2023-02-24T10:01:23.177Z,98402.97
2023-02-24T10:04:14.839Z,98394.47
2023-02-24T10:06:48.631Z,98382.91
2023-02-24T10:09:34.471Z,98388.16
2023-02-24T10:12:28.770Z,98380.25
2023-02-24T10:15:29.725Z,98379.34
2023-02-24T10:17:58.579Z,98369.31
2023-02-24T10:20:45.686Z,98377.41
2023-02-24T10:23:29.673Z,98359.19
2023-02-24T10:26:21.985Z,98361.25
2023-02-24T10:28:59.532Z,98354.66
2023-02-24T10:31:47.832Z,98346.91
2023-02-24T10:34:26.291Z,98338.94
2023-02-24T10:36:53.153Z,98339.50
2023-02-24T10:39:25.758Z,98335.97
2023-02-24T10:42:17.552Z,98331.44
2023-02-24T10:45:02.205Z,98321.44
2023-02-24T10:47:33.321Z,98323.00
2023-02-24T10:50:02.039Z,98318.00
2023-02-24T10:52:37.484Z,98316.41
2023-02-24T10:55:28.094Z,98309.56
2023-02-24T10:58:06.180Z,98301.84
2023-02-24T11:01:16.404Z,98296.53
2023-02-24T11:04:01.146Z,98289.44
2023-02-24T11:06:42.293Z,98284.09
2023-02-24T11:09:29.984Z,98277.53
2023-02-24T11:12:18.182Z,98279.28
2023-02-24T11:15:10.445Z,98271.75
2023-02-24T11:17:44.594Z,98260.19
2023-02-24T11:20:33.623Z,98256.81
2023-02-24T11:23:15.458Z,98245.69
2023-02-24T11:25:46.525Z,98240.75
2023-02-24T11:28:34.184Z,98248.63
2023-02-24T11:31:28.808Z,98238.25
2023-02-24T11:34:04.846Z,98227.81
2023-02-24T11:37:06.739Z,98223.84
2023-02-24T11:39:47.539Z,98209.28
2023-02-24T11:42:23.800Z,98208.97
2023-02-24T11:45:00.034Z,98193.75
2023-02-24T11:47:36.791Z,98192.81
2023-02-24T11:50:14.674Z,98193.25
2023-02-24T11:52:43.717Z,98175.03
2023-02-24T11:55:29.692Z,98175.31
2023-02-24T11:57:59.348Z,98166.22
2023-02-24T12:00:28.971Z,98166.88
2023-02-24T12:03:09.533Z,98159.81
2023-02-24T12:05:57.659Z,98158.53
2023-02-24T12:08:29.899Z,98156.13
2023-02-24T12:11:11.379Z,98145.25
2023-02-24T12:13:59.430Z,98134.38
2023-02-24T12:16:33.505Z,98129.88
2023-02-24T12:19:20.076Z,98125.56
2023-02-24T12:22:12.786Z,98126.84
2023-02-24T12:24:42.133Z,98131.28
2023-02-24T12:27:12.570Z,98134.34
2023-02-24T12:30:23.297Z,98125.81
2023-02-24T12:33:05.930Z,98111.91
2023-02-24T12:35:41.614Z,98100.22
2023-02-24T12:38:27.052Z,98106.34
2023-02-24T12:41:03.596Z,98097.22
2023-02-24T12:43:43.022Z,98091.63
2023-02-24T12:46:36.791Z,98087.63
2023-02-24T12:49:20.330Z,98077.25
2023-02-24T12:52:16.876Z,98083.94
2023-02-24T12:54:43.544Z,98074.97
2023-02-24T12:57:22.567Z,98073.66
2023-02-24T12:59:49.754Z,98067.59
2023-02-24T13:02:25.492Z,98067.53
2023-02-24T13:05:03.475Z,98064.56
2023-02-24T13:07:39.329Z,98064.66
2023-02-24T13:10:14.851Z,98057.09
2023-02-24T13:13:01.778Z,98040.31
2023-02-24T13:15:31.946Z,98052.63
2023-02-24T13:17:59.392Z,98040.41
2023-02-24T13:20:37.580Z,98039.06
2023-02-24T13:23:19.270Z,98033.97
2023-02-24T13:25:54.126Z,98024.22
2023-02-24T13:28:31.148Z,98026.41
2023-02-24T13:31:00.576Z,98028.28
2023-02-24T13:33:43.074Z,98031.22
2023-02-24T13:36:21.635Z,98020.84
2023-02-24T13:38:50.705Z,98027.78
2023-02-24T13:41:36.682Z,98017.84
2023-02-24T13:44:27.763Z,98028.53
2023-02-24T13:47:12.685Z,98021.13
2023-02-24T13:50:00.423Z,98012.19
2023-02-24T13:52:42.237Z,98022.78
2023-02-24T13:55:46.465Z,98019.38
2023-02-24T13:58:26.354Z,98018.78
2023-02-24T14:01:01.992Z,98021.31
2023-02-24T14:03:29.174Z,98019.19
2023-02-24T14:05:59.203Z,98018.72
2023-02-24T14:08:39.221Z,98004.47
2023-02-24T14:11:07.892Z,98002.06
2023-02-24T14:13:36.648Z,97993.06
2023-02-24T14:16:11.362Z,97998.56
2023-02-24T14:18:39.705Z,97997.28
2023-02-24T14:21:06.394Z,98000.38
2023-02-24T14:23:34.645Z,97993.56
2023-02-24T14:26:15.875Z,97997.09
2023-02-24T14:28:42.600Z,97997.66
2023-02-24T14:31:15.488Z,97992.25
2023-02-24T14:33:44.187Z,97987.03
2023-02-24T14:36:18.948Z,97994.06
2023-02-24T14:38:45.766Z,97992.56
2023-02-24T14:41:30.485Z,97986.22
2023-02-24T14:43:57.162Z,97984.06
2023-02-24T14:46:24.306Z,97980.13
2023-02-24T14:48:56.076Z,97980.91
2023-02-24T14:51:31.500Z,97986.66
2023-02-24T14:54:01.269Z,97965.63
2023-02-24T14:56:31.241Z,97969.91
2023-02-24T14:59:01.968Z,97962.09
2023-02-24T15:01:36.509Z,97968.91
2023-02-24T15:04:31.141Z,97964.94
2023-02-24T15:06:57.905Z,97960.91
2023-02-24T15:09:29.181Z,97953.78
2023-02-24T15:11:56.516Z,97951.88
2023-02-24T15:14:32.558Z,97959.53
2023-02-24T15:17:08.808Z,97944.50
2023-02-24T15:19:44.189Z,97943.41
2023-02-24T15:22:21.598Z,97940.41
2023-02-24T15:24:48.635Z,97944.69
2023-02-24T15:27:15.088Z,97943.91
2023-02-24T15:29:42.774Z,97937.34
2023-02-24T15:32:21.553Z,97941.66
2023-02-24T15:34:48.282Z,97939.16
2023-02-24T15:37:27.291Z,97931.88
2023-02-24T15:40:03.948Z,97913.66
2023-02-24T15:42:35.248Z,97915.28
2023-02-24T15:45:07.622Z,97906.06
2023-02-24T15:47:43.218Z,97901.31
2023-02-24T15:50:11.191Z,97891.44
2023-02-24T15:52:38.562Z,97882.47
2023-02-24T15:55:05.651Z,97875.47
2023-02-24T15:57:33.208Z,97873.00
2023-02-24T15:59:59.861Z,97865.78
2023-02-24T16:02:28.016Z,97873.19
2023-02-24T16:04:54.637Z,97869.16
2023-02-24T16:07:24.963Z,97877.09
2023-02-24T16:09:53.139Z,97874.53
2023-02-24T16:12:34.494Z,97865.03
2023-02-24T16:15:03.661Z,97874.00
2023-02-24T16:17:34.765Z,97860.41
2023-02-24T16:20:02.200Z,97861.59
2023-02-24T16:22:29.355Z,97857.72
2023-02-24T16:24:56.329Z,97850.84
2023-02-24T16:27:23.745Z,97844.19
2023-02-24T16:29:51.149Z,97839.47
2023-02-24T16:32:17.897Z,97844.41
2023-02-24T16:34:44.724Z,97836.47
2023-02-24T16:37:19.983Z,97836.09
2023-02-24T16:39:47.439Z,97835.34
2023-02-24T16:42:14.008Z,97826.03
2023-02-24T16:44:40.729Z,97828.81
2023-02-24T16:47:08.330Z,97821.91
2023-02-24T16:49:34.998Z,97823.56
2023-02-24T16:52:01.639Z,97820.94
2023-02-24T16:54:29.506Z,97820.41
2023-02-24T16:56:56.738Z,97824.22
2023-02-24T16:59:25.854Z,97812.13
2023-02-24T17:01:55.755Z,97808.69
2023-02-24T22:55:58.379Z,97515.22
2023-02-24T22:58:42.628Z,97512.56
2023-02-24T23:04:14.391Z,97508.53
2023-02-24T23:06:42.100Z,97514.41
2023-02-24T23:15:10.507Z,97502.88
2023-02-24T23:17:37.393Z,97492.72
2023-02-24T23:20:12.909Z,97498.91
2023-02-24T23:22:41.354Z,97503.41
2023-02-24T23:25:10.913Z,97503.91
2023-02-24T23:27:39.816Z,97513.91
